»·PEaware :: AAL969 KDFW-KMIA

AAL969 :: KDFW-KMIA

FLIGHT INFORMATION

Flight Status: Arrived
Operator:
American Airlines
More flights by this operator :: More flights under this callsign
Pilot: Drew L. (13237)
Aircraft: Unknown
(B77W)
More flights by this aircraft type
Origin: KDFW Dallas-Ft Worth Intl
United States
Destination: KMIA Miami Intl
United States
More flights between these airports :: More routes between these airports
Route: DARTZ7 BILEE J87 IAH LEV Q102 BAGGS SSCOT4
File this flight plan on PilotEdge
Remarks: PBN / A1B1C1D1L1O1S2 DOF / 180316 REG / N721AN EET / KZHU0014 KZJX0110 KZMA0127 SEL / ALRE OPR / AAL PER / D RMK / TCAS SIMBRIEF
Altitude:
(Current/Filed)
37,000ft
Speed:
(Current/Filed)
477kts
Departed: 16-Mar-18 04:29 AM
Arrived: 16-Mar-18 06:42 AM
Distance/Time
Traveled:
973nm/2:12
Distance/Time
To Go:
Arrived

Flight Plot

Page will automatically refresh every two minutes.

Flight plan parsing failed; only flown route is shown


Map Options




Map Legend


Flown Route
Filed Route
Departure Airport
Arrival Airport
Navaid (VOR, NDB)
Fix

Horizontal Profiles

Position Reports

Time Latitude Longitude Heading Altitude Ground
Speed
16-Mar-18 04:06 32.902419 -97.036102 318 620ft 0kts
16-Mar-18 04:07 32.902419 -97.036102 318 620ft 0kts
16-Mar-18 04:08 32.902419 -97.036102 318 620ft 0kts
16-Mar-18 04:09 32.902419 -97.036102 318 620ft 0kts
16-Mar-18 04:10 32.902419 -97.036102 318 620ft 0kts
16-Mar-18 04:11 32.902419 -97.036102 318 620ft 0kts
16-Mar-18 04:12 32.902419 -97.036102 318 620ft 0kts
16-Mar-18 04:13 32.902419 -97.036102 318 620ft 0kts
16-Mar-18 04:14 32.902419 -97.036102 318 620ft 0kts
16-Mar-18 04:15 32.902419 -97.036102 318 620ft 0kts
16-Mar-18 04:16 32.902419 -97.036102 318 620ft 0kts
16-Mar-18 04:17 32.902419 -97.036102 318 620ft 0kts
16-Mar-18 04:18 32.902419 -97.036102 318 620ft 0kts
16-Mar-18 04:19 32.902419 -97.036102 318 620ft 0kts
16-Mar-18 04:20 32.901988 -97.035645 318 620ft 2kts
16-Mar-18 04:21 32.901584 -97.035217 318 620ft 0kts
16-Mar-18 04:22 32.901584 -97.035217 318 620ft 0kts
16-Mar-18 04:23 32.901584 -97.035217 318 620ft 0kts
16-Mar-18 04:24 32.901662 -97.035244 346 620ft 3kts
16-Mar-18 04:25 32.903303 -97.032284 80 620ft 17kts
16-Mar-18 04:26 32.910554 -97.031827 0 620ft 28kts
16-Mar-18 04:27 32.913824 -97.029981 153 620ft 12kts
16-Mar-18 04:28 32.910735 -97.029896 180 621ft 74kts
16-Mar-18 04:29 32.866892 -97.030680 184 3077ft 171kts
16-Mar-18 04:30 32.807908 -97.030654 186 5028ft 253kts
16-Mar-18 04:31 32.734433 -97.030678 186 8435ft 276kts
16-Mar-18 04:32 32.655317 -97.004050 161 11438ft 323kts
16-Mar-18 04:33 32.564358 -96.957662 162 14103ft 386kts
16-Mar-18 04:34 32.462420 -96.903793 161 17551ft 412kts
16-Mar-18 04:35 32.354960 -96.847326 161 20716ft 433kts
16-Mar-18 04:36 32.241038 -96.791709 166 23502ft 449kts
16-Mar-18 04:37 32.119899 -96.746227 167 25998ft 466kts
16-Mar-18 04:38 31.994183 -96.697516 168 28204ft 482kts
16-Mar-18 04:39 31.864595 -96.647360 168 30002ft 497kts
16-Mar-18 04:40 31.734035 -96.596827 168 32235ft 490kts
16-Mar-18 04:41 31.604726 -96.547098 169 34155ft 485kts
16-Mar-18 04:42 31.476735 -96.498299 170 35649ft 483kts
16-Mar-18 04:43 31.348494 -96.450221 171 36900ft 484kts
16-Mar-18 04:44 31.220746 -96.402528 171 36938ft 482kts
16-Mar-18 04:45 31.093082 -96.354894 171 36942ft 482kts
16-Mar-18 04:46 30.964960 -96.307305 171 36948ft 482kts
16-Mar-18 04:47 30.836861 -96.259886 171 36948ft 484kts
16-Mar-18 04:48 30.708634 -96.213237 171 36951ft 483kts
16-Mar-18 04:49 30.584307 -96.147132 149 36948ft 516kts
16-Mar-18 04:50 30.483559 -96.025698 139 36949ft 525kts
16-Mar-18 04:51 30.386019 -95.899106 139 36952ft 525kts
16-Mar-18 04:52 30.288631 -95.773116 139 36963ft 526kts
16-Mar-18 04:53 30.191021 -95.647232 139 36964ft 526kts
16-Mar-18 04:54 30.093397 -95.520929 139 36960ft 524kts
16-Mar-18 04:55 29.999945 -95.391243 126 36958ft 540kts
16-Mar-18 04:56 29.958205 -95.221262 103 36963ft 560kts
16-Mar-18 04:57 29.933889 -95.043173 103 36975ft 562kts
16-Mar-18 04:58 29.909732 -94.865367 103 36991ft 562kts
16-Mar-18 04:59 29.885234 -94.686969 103 36993ft 562kts
16-Mar-18 05:00 29.860576 -94.509221 104 36994ft 563kts
16-Mar-18 05:01 29.835677 -94.331524 104 36997ft 562kts
16-Mar-18 05:02 29.810477 -94.153471 104 37000ft 562kts
16-Mar-18 05:03 29.785127 -93.976126 104 36999ft 562kts
16-Mar-18 05:04 29.759531 -93.798828 104 37006ft 562kts
16-Mar-18 05:05 29.733598 -93.620863 104 37017ft 563kts
16-Mar-18 05:06 29.707493 -93.443464 104 37019ft 563kts
16-Mar-18 05:07 29.681041 -93.265419 105 37019ft 564kts
16-Mar-18 05:08 29.654418 -93.087892 105 37017ft 565kts
16-Mar-18 05:09 29.627510 -92.910162 105 37025ft 565kts
16-Mar-18 05:10 29.600266 -92.731834 105 37032ft 565kts
16-Mar-18 05:11 29.572862 -92.554115 105 37036ft 566kts
16-Mar-18 05:12 29.545202 -92.376359 106 37047ft 566kts
16-Mar-18 05:13 29.517188 -92.197940 106 37055ft 566kts
16-Mar-18 05:14 29.489045 -92.020289 106 37060ft 566kts
16-Mar-18 05:15 29.460583 -91.842198 106 37057ft 566kts
16-Mar-18 05:16 29.431996 -91.664890 106 37054ft 565kts
16-Mar-18 05:17 29.403179 -91.487636 106 37055ft 565kts
16-Mar-18 05:18 29.374080 -91.310168 106 37059ft 564kts
16-Mar-18 05:19 29.344899 -91.133681 106 37074ft 564kts
16-Mar-18 05:20 29.315410 -90.956705 106 37078ft 564kts
16-Mar-18 05:21 29.285835 -90.780571 106 37080ft 564kts
16-Mar-18 05:22 29.256103 -90.604753 106 37084ft 563kts
16-Mar-18 05:23 29.226791 -90.427995 103 37087ft 566kts
16-Mar-18 05:24 29.199173 -90.251450 105 37089ft 563kts
16-Mar-18 05:25 29.165415 -90.077643 115 37090ft 553kts
16-Mar-18 05:26 29.105668 -89.916357 120 37093ft 548kts
16-Mar-18 05:27 29.044718 -89.756885 119 37097ft 548kts
16-Mar-18 05:28 28.984710 -89.596593 119 37099ft 547kts
16-Mar-18 05:29 28.924523 -89.437410 119 37101ft 546kts
16-Mar-18 05:30 28.864189 -89.278705 119 37103ft 546kts
16-Mar-18 05:31 28.803554 -89.119846 119 37110ft 545kts
16-Mar-18 05:32 28.742937 -88.961728 119 37112ft 545kts
16-Mar-18 05:33 28.681989 -88.803407 119 37122ft 544kts
16-Mar-18 05:34 28.621159 -88.646081 119 37114ft 543kts
16-Mar-18 05:35 28.560296 -88.489241 119 37115ft 542kts
16-Mar-18 05:36 28.499311 -88.332287 119 37111ft 542kts
16-Mar-18 05:37 28.438189 -88.176201 119 37112ft 541kts
16-Mar-18 05:38 28.377344 -88.020341 117 37115ft 543kts
16-Mar-18 05:39 28.337626 -87.883835 111 37117ft 545kts
16-Mar-18 05:40 28.283252 -87.693253 112 37118ft 544kts
16-Mar-18 05:41 28.244071 -87.557337 112 37121ft 545kts
16-Mar-18 05:42 28.188411 -87.366655 112 37124ft 545kts
16-Mar-18 05:43 28.148547 -87.230989 112 37150ft 545kts
16-Mar-18 05:44 28.100543 -87.067704 112 37153ft 546kts
16-Mar-18 05:45 28.052225 -86.905004 113 37155ft 545kts
16-Mar-18 05:46 28.003794 -86.742639 112 37159ft 545kts
16-Mar-18 05:47 27.956441 -86.579451 112 37161ft 543kts
16-Mar-18 05:48 27.909034 -86.417254 112 37163ft 544kts
16-Mar-18 05:49 27.861983 -86.254825 112 37168ft 545kts
16-Mar-18 05:50 27.814233 -86.091970 112 37171ft 545kts
16-Mar-18 05:51 27.766410 -85.929835 112 37172ft 545kts
16-Mar-18 05:52 27.718255 -85.767364 112 37175ft 544kts
16-Mar-18 05:53 27.670345 -85.605629 112 37177ft 544kts
16-Mar-18 05:54 27.621863 -85.444179 112 37193ft 543kts
16-Mar-18 05:55 27.578123 -85.280411 104 37194ft 548kts
16-Mar-18 05:56 27.551340 -85.111605 103 37196ft 548kts
16-Mar-18 05:57 27.521948 -84.943457 103 37211ft 548kts
16-Mar-18 05:58 27.492015 -84.774854 103 37213ft 548kts
16-Mar-18 05:59 27.461844 -84.606856 103 37215ft 548kts
16-Mar-18 06:00 27.431333 -84.438389 103 37218ft 548kts
16-Mar-18 06:01 27.401342 -84.270421 103 37222ft 548kts
16-Mar-18 06:02 27.370807 -84.102246 103 37225ft 549kts
16-Mar-18 06:03 27.339878 -83.933565 103 37233ft 549kts
16-Mar-18 06:04 27.308850 -83.765502 103 37234ft 549kts
16-Mar-18 06:05 27.277665 -83.597798 104 37223ft 549kts
16-Mar-18 06:06 27.246166 -83.429581 103 37223ft 549kts
16-Mar-18 06:07 27.214580 -83.262043 104 37223ft 548kts
16-Mar-18 06:08 27.182967 -83.094198 104 37223ft 548kts
16-Mar-18 06:09 27.150783 -82.926760 104 37224ft 549kts
16-Mar-18 06:10 27.087765 -82.776616 141 37225ft 526kts
16-Mar-18 06:11 26.977854 -82.668533 142 37233ft 527kts
16-Mar-18 06:12 26.873807 -82.553078 140 37228ft 527kts
16-Mar-18 06:13 26.769526 -82.437511 141 37224ft 526kts
16-Mar-18 06:14 26.665241 -82.323049 141 37231ft 525kts
16-Mar-18 06:15 26.561232 -82.209554 142 35531ft 520kts
16-Mar-18 06:16 26.456262 -82.098508 141 32986ft 515kts
16-Mar-18 06:17 26.353796 -81.989634 140 30891ft 502kts
16-Mar-18 06:18 26.253838 -81.883914 141 28779ft 490kts
16-Mar-18 06:19 26.159238 -81.775965 127 26581ft 486kts
16-Mar-18 06:20 26.106973 -81.638190 108 24416ft 482kts
16-Mar-18 06:21 26.063757 -81.498189 110 22276ft 472kts
16-Mar-18 06:22 26.019704 -81.362158 109 20137ft 464kts
16-Mar-18 06:23 25.976392 -81.228700 108 18016ft 454kts
16-Mar-18 06:24 25.933687 -81.097523 109 15907ft 442kts
16-Mar-18 06:25 25.892385 -80.971692 109 14008ft 425kts
16-Mar-18 06:26 25.856106 -80.849371 98 12028ft 410kts
16-Mar-18 06:27 25.856591 -80.727438 84 10751ft 370kts
16-Mar-18 06:28 25.862311 -80.623371 87 10265ft 307kts
16-Mar-18 06:29 25.828925 -80.560596 186 9542ft 248kts
16-Mar-18 06:30 25.799780 -80.619841 262 8182ft 235kts
16-Mar-18 06:31 25.795866 -80.691475 277 6851ft 231kts
16-Mar-18 06:32 25.846061 -80.698503 39 5644ft 226kts
16-Mar-18 06:33 25.864315 -80.635091 90 4984ft 223kts
16-Mar-18 06:34 25.843705 -80.579081 131 4311ft 200kts
16-Mar-18 06:35 25.813632 -80.527683 125 3510ft 195kts
16-Mar-18 06:36 25.782108 -80.480121 120 2999ft 182kts
16-Mar-18 06:37 25.781540 -80.423090 87 2372ft 191kts
16-Mar-18 06:38 25.783806 -80.370085 87 1061ft 153kts
16-Mar-18 06:39 25.785693 -80.326183 87 286ft 138kts
16-Mar-18 06:40 25.787040 -80.291479 86 22ft 57kts
16-Mar-18 06:41 25.790005 -80.285516 15 21ft 8kts
16-Mar-18 06:42 25.792967 -80.284187 313 21ft 0kts
16-Mar-18 06:43 25.794737 -80.286006 357 21ft 19kts
16-Mar-18 06:44 25.798814 -80.283037 53 21ft 8kts
16-Mar-18 06:45 25.799294 -80.277294 160 21ft 0kts
16-Mar-18 06:46 25.799294 -80.277294 160 21ft 0kts

Navigation Log

Ident Type
Flight plan parsing failed, navigation log unavailable